This is the latest recevied weather packets stored in our database for station/object KA3ZXO. If no packets are shown the sender has not sent any weather packets the latest 10 day(s).
| Time | Temp. | Humidity | Pressure | Rain* | Wind** | Luminosity | Snow |
|---|---|---|---|---|---|---|---|
| 1777921034 | 26.67° C | 29% | 1011.8 hPa | 0 mm | - | 619 W/m² | - |
| 1777920433 | 25.56° C | 31% | 1012 hPa | 0 mm | - | 637 W/m² | - |
| 1777919831 | 25.56° C | 29% | 1012.3 hPa | 0 mm | - | 649 W/m² | - |
| 1777919226 | 25° C | 31% | 1012.4 hPa | 0 mm | - | 662 W/m² | - |
| 1777918627 | 24.44° C | 31% | 1012.3 hPa | 0 mm | - | 674 W/m² | - |
| 1777918023 | 23.89° C | 33% | 1012.5 hPa | 0 mm | - | 129 W/m² | - |
| 1777917418 | 23.89° C | 33% | 1012.7 hPa | 0 mm | - | 76 W/m² | - |
| 1777916819 | 23.33° C | 33% | 1012.7 hPa | 0 mm | - | 46 W/m² | - |
| 1777916218 | 22.78° C | 34% | 1012.7 hPa | 0 mm | - | 92 W/m² | - |
| 1777915618 | 22.78° C | 33% | 1013.1 hPa | 0 mm | - | 45 W/m² | - |
| 1777915017 | 22.22° C | 34% | 1013.3 hPa | 0 mm | - | 52 W/m² | - |
| 1777914415 | 21.67° C | 35% | 1013.3 hPa | 0 mm | - | 44 W/m² | - |
| 1777913815 | 21.67° C | 35% | 1013.5 hPa | 0 mm | - | 168 W/m² | - |
| 1777913214 | 21.67° C | 34% | 1013.5 hPa | 0 mm | - | 46 W/m² | - |
| 1777912613 | 21.67° C | 35% | 1013.5 hPa | 0 mm | - | 38 W/m² | - |
| 1777912011 | 21.11° C | 36% | 1013.7 hPa | 0 mm | - | 222 W/m² | - |
| 1777911409 | 21.11° C | 36% | 1013.8 hPa | 0 mm | - | 67 W/m² | - |
| 1777910805 | 21.11° C | 35% | 1014 hPa | 0 mm | - | 42 W/m² | - |
| 1777910203 | 20.56° C | 35% | 1014.1 hPa | 0 mm | - | 35 W/m² | - |
| 1777909603 | 20.56° C | 35% | 1014.1 hPa | 0 mm | - | 76 W/m² | - |
| 1777908998 | 20° C | 37% | 1014.2 hPa | 0 mm | - | 32 W/m² | - |
| 1777908393 | 20° C | 36% | 1014.2 hPa | 0 mm | - | 168 W/m² | - |
| 1777907791 | 18.89° C | 39% | 1014.2 hPa | 0 mm | - | 30 W/m² | - |
| 1777907190 | 18.89° C | 40% | 1014.1 hPa | 0 mm | - | 39 W/m² | - |
| 1777906584 | 18.33° C | 42% | 1014.7 hPa | 0 mm | - | 89 W/m² | - |
* Rain latest hour (hover to see other rain measurements)
** Current wind speed in m/s (hover to see current wind gust speed)